^^
Datos históricos de la estación: Murcia-Puente Tocinos
Diario Informe para Febrero 28, 2019 Unidades:  Ambas    Ingés   Métrico
Diario Semanal Mensual Anual
  Máxima: Mínima: Promedio:
Temperatura: 78.4 °F /  25.8 °C 65.1 °F /  18.4 °C 70.7 °F /  21.5 °C
Punto de rocio: 63.5 °F /  17.5 °C 56.7 °F /  13.7 °C 61 °F /  16.1 °C
Humedad: 92% 49% 73%
Velocidad viento: 14.7mph /  23.7km/h - 6.8mph /  10.9km/h
Racha viento: 26.5mph /  42.6km/h - -
Viento- - ENE
Presión: 30 in /  1015.5 hPa 29.8 in /  1009.4 hPa -
Precipitación: 0 in /  0.0 mm    
 
 
Tabla de datos para Febrero 28, 2019
Hora Temperatura Punto de rocio Presión Viento Velocidad viento Racha viento Humedad Intensidad lluvia(por hora) Nubes
00:04 67.8 °F /  19.9 °C 62.1 °F /  16.7 °C 29.8in /  1009.6hPa NNE 6.2mph /  10km/h 12.7mph /  20.4km/h 82% 0in /  0.0mm
00:09 67.6 °F /  19.8 °C 61.9 °F /  16.6 °C 29.8in /  1009.6hPa NNE 6.7mph /  10.8km/h 14.5mph /  23.3km/h 82% 0in /  0.0mm
00:14 67.5 °F /  19.7 °C 62.1 °F /  16.7 °C 29.8in /  1009.6hPa NE 7.6mph /  12.2km/h 15mph /  24.1km/h 82.7% 0in /  0.0mm
00:19 67.3 °F /  19.6 °C 61.9 °F /  16.6 °C 29.8in /  1009.6hPa NNE 8mph /  12.9km/h 15mph /  24.1km/h 83% 0in /  0.0mm
00:24 67.3 °F /  19.6 °C 62.1 °F /  16.7 °C 29.8in /  1009.4hPa NNE 8.7mph /  14km/h 13mph /  20.9km/h 83.7% 0in /  0.0mm
00:29 67.1 °F /  19.5 °C 62.1 °F /  16.7 °C 29.8in /  1009.4hPa NNE 8.3mph /  13.3km/h 13mph /  20.9km/h 84% 0in /  0.0mm
00:34 66.9 °F /  19.4 °C 62.2 °F /  16.8 °C 29.8in /  1009.6hPa NNE 7.6mph /  12.2km/h 12mph /  19.3km/h 84.7% 0in /  0.0mm
00:39 66.9 °F /  19.4 °C 62.2 °F /  16.8 °C 29.8in /  1009.6hPa NNE 7.5mph /  12.1km/h 12mph /  19.3km/h 85% 0in /  0.0mm
00:44 66.7 °F /  19.3 °C 62.1 °F /  16.7 °C 29.8in /  1009.6hPa NE 7.4mph /  11.9km/h 12mph /  19.3km/h 85% 0in /  0.0mm
00:49 66.7 °F /  19.3 °C 62.2 °F /  16.8 °C 29.8in /  1009.6hPa NE 7.2mph /  11.6km/h 12.7mph /  20.4km/h 85.5% 0in /  0.0mm
00:54 66.7 °F /  19.3 °C 62.4 °F /  16.9 °C 29.8in /  1009.6hPa NE 6.9mph /  11.1km/h 13mph /  20.9km/h 86% 0in /  0.0mm
00:59 66.6 °F /  19.2 °C 62.2 °F /  16.8 °C 29.8in /  1009.6hPa NE 7.1mph /  11.5km/h 13mph /  20.9km/h 86% 0in /  0.0mm
01:04 66.6 °F /  19.2 °C 62.2 °F /  16.8 °C 29.8in /  1009.7hPa NE 7.6mph /  12.2km/h 13mph /  20.9km/h 86% 0in /  0.0mm
01:09 66.6 °F /  19.2 °C 62.2 °F /  16.8 °C 29.8in /  1009.7hPa NE 7.3mph /  11.8km/h 12mph /  19.3km/h 86% 0in /  0.0mm
01:14 66.6 °F /  19.2 °C 62.6 °F /  17 °C 29.8in /  1009.7hPa NE 6.9mph /  11.1km/h 12mph /  19.3km/h 86.9% 0in /  0.0mm
01:19 66.4 °F /  19.1 °C 62.4 °F /  16.9 °C 29.8in /  1009.7hPa NE 6.3mph /  10.2km/h 10.4mph /  16.7km/h 87% 0in /  0.0mm
01:24 66.4 °F /  19.1 °C 62.4 °F /  16.9 °C 29.8in /  1009.6hPa NNE 5.4mph /  8.7km/h 10mph /  16.1km/h 87% 0in /  0.0mm
01:29 66.2 °F /  19 °C 62.2 °F /  16.8 °C 29.8in /  1009.6hPa NE 5.4mph /  8.7km/h 10mph /  16.1km/h 87% 0in /  0.0mm
01:34 66 °F /  18.9 °C 62.1 °F /  16.7 °C 29.8in /  1009.7hPa NE 5.4mph /  8.7km/h 12.7mph /  20.4km/h 87% 0in /  0.0mm
01:39 66 °F /  18.9 °C 62.2 °F /  16.8 °C 29.8in /  1009.7hPa NE 6mph /  9.6km/h 13mph /  20.9km/h 87.5% 0in /  0.0mm
01:44 66 °F /  18.9 °C 62.4 °F /  16.9 °C 29.8in /  1009.7hPa NE 6.9mph /  11.1km/h 12mph /  19.3km/h 88% 0in /  0.0mm
01:49 65.8 °F /  18.8 °C 62.1 °F /  16.7 °C 29.8in /  1009.7hPa NE 6.9mph /  11.1km/h 13mph /  20.9km/h 87.4% 0in /  0.0mm
01:54 65.8 °F /  18.8 °C 61.7 °F /  16.5 °C 29.8in /  1009.7hPa NE 6.9mph /  11.1km/h 13mph /  20.9km/h 86.6% 0in /  0.0mm
01:59 65.7 °F /  18.7 °C 60.8 °F /  16 °C 29.8in /  1009.7hPa NE 6.9mph /  11.1km/h 11.5mph /  18.5km/h 84.2% 0in /  0.0mm
02:04 65.8 °F /  18.8 °C 60.3 °F /  15.7 °C 29.8in /  1009.7hPa NE 6.9mph /  11.1km/h 12mph /  19.3km/h 82.2% 0in /  0.0mm
02:09 65.8 °F /  18.8 °C 59.9 °F /  15.5 °C 29.8in /  1009.6hPa NE 6.1mph /  9.8km/h 8mph /  12.9km/h 81% 0in /  0.0mm
02:14 66 °F /  18.9 °C 60.1 °F /  15.6 °C 29.8in /  1009.6hPa North 4.7mph /  7.6km/h 7mph /  11.3km/h 81.4% 0in /  0.0mm
02:19 66 °F /  18.9 °C 60.4 °F /  15.8 °C 29.8in /  1009.7hPa NNE 4.3mph /  6.9km/h 8.1mph /  13km/h 82.5% 0in /  0.0mm
02:24 65.8 °F /  18.8 °C 60.8 °F /  16 °C 29.8in /  1009.7hPa NNE 3.6mph /  5.8km/h 8.5mph /  13.7km/h 84% 0in /  0.0mm
02:29 65.8 °F /  18.8 °C 61.5 °F /  16.4 °C 29.8in /  1009.7hPa NNE 4.2mph /  6.8km/h 10.7mph /  17.2km/h 86.1% 0in /  0.0mm
02:34 65.8 °F /  18.8 °C 62.1 °F /  16.7 °C 29.8in /  1009.7hPa NE 5.4mph /  8.7km/h 11mph /  17.7km/h 87.6% 0in /  0.0mm
02:39 65.7 °F /  18.7 °C 62.1 °F /  16.7 °C 29.8in /  1009.6hPa NE 6mph /  9.6km/h 11.5mph /  18.5km/h 88.5% 0in /  0.0mm
02:44 65.5 °F /  18.6 °C 62.2 °F /  16.8 °C 29.8in /  1009.6hPa NE 6.9mph /  11.1km/h 12mph /  19.3km/h 89% 0in /  0.0mm
02:49 65.5 °F /  18.6 °C 62.1 °F /  16.7 °C 29.8in /  1009.6hPa NE 6.9mph /  11.1km/h 12mph /  19.3km/h 89% 0in /  0.0mm
02:54 65.3 °F /  18.5 °C 61.9 °F /  16.6 °C 29.8in /  1009.5hPa NE 6.9mph /  11.1km/h 12mph /  19.3km/h 89% 0in /  0.0mm
02:59 65.1 °F /  18.4 °C 61.9 °F /  16.6 °C 29.8in /  1009.5hPa NE 6.2mph /  10km/h 11mph /  17.7km/h 89.1% 0in /  0.0mm
03:04 65.1 °F /  18.4 °C 62.1 °F /  16.7 °C 29.8in /  1009.6hPa NE 5.2mph /  8.4km/h 9mph /  14.5km/h 90% 0in /  0.0mm
03:09 65.1 °F /  18.4 °C 62.1 °F /  16.7 °C 29.8in /  1009.6hPa NE 5.2mph /  8.4km/h 8mph /  12.9km/h 90% 0in /  0.0mm
03:14 65.1 °F /  18.4 °C 62.2 °F /  16.8 °C 29.8in /  1009.6hPa NE 5.2mph /  8.4km/h 7mph /  11.3km/h 90.4% 0in /  0.0mm
03:19 65.1 °F /  18.4 °C 62.4 °F /  16.9 °C 29.8in /  1009.9hPa NE 4.6mph /  7.4km/h 6.9mph /  11.1km/h 91% 0in /  0.0mm
03:24 65.1 °F /  18.4 °C 62.4 °F /  16.9 °C 29.8in /  1009.9hPa NE 3.6mph /  5.8km/h 7mph /  11.3km/h 91% 0in /  0.0mm
03:29 65.1 °F /  18.4 °C 62.4 °F /  16.9 °C 29.8in /  1009.9hPa NE 3.7mph /  6km/h 6.2mph /  10km/h 91% 0in /  0.0mm
03:34 65.3 °F /  18.5 °C 62.8 °F /  17.1 °C 29.8in /  1010.0hPa NNE 4mph /  6.5km/h 7.4mph /  11.9km/h 91.8% 0in /  0.0mm
03:39 65.3 °F /  18.5 °C 63 °F /  17.2 °C 29.8in /  1010.0hPa NE 3.9mph /  6.2km/h 7mph /  11.3km/h 92% 0in /  0.0mm
03:44 65.5 °F /  18.6 °C 63.1 °F /  17.3 °C 29.8in /  1010.0hPa NE 3.6mph /  5.8km/h 6.9mph /  11.1km/h 92% 0in /  0.0mm
03:49 65.5 °F /  18.6 °C 63.1 °F /  17.3 °C 29.8in /  1010.0hPa NE 3.7mph /  6km/h 7mph /  11.3km/h 92% 0in /  0.0mm
03:54 65.5 °F /  18.6 °C 63.1 °F /  17.3 °C 29.8in /  1009.9hPa NE 4mph /  6.5km/h 7mph /  11.3km/h 92% 0in /  0.0mm
03:59 65.5 °F /  18.6 °C 63.1 °F /  17.3 °C 29.8in /  1009.9hPa NNE 4mph /  6.5km/h 7mph /  11.3km/h 92% 0in /  0.0mm
04:04 65.5 °F /  18.6 °C 63.1 °F /  17.3 °C 29.8in /  1010.0hPa NNE 4mph /  6.5km/h 6mph /  9.7km/h 92% 0in /  0.0mm
04:09 65.5 °F /  18.6 °C 63.1 °F /  17.3 °C 29.8in /  1010.0hPa NNE 3.9mph /  6.2km/h 6.2mph /  10km/h 92% 0in /  0.0mm
04:14 65.7 °F /  18.7 °C 63.1 °F /  17.3 °C 29.8in /  1010.0hPa NNE 3.6mph /  5.8km/h 8.1mph /  13km/h 92% 0in /  0.0mm
04:19 65.7 °F /  18.7 °C 63.3 °F /  17.4 °C 29.8in /  1010.1hPa NNE 3.9mph /  6.2km/h 8mph /  12.9km/h 92% 0in /  0.0mm
04:24 65.7 °F /  18.7 °C 63.3 °F /  17.4 °C 29.8in /  1010.1hPa NNE 4.3mph /  6.9km/h 7.4mph /  11.9km/h 92% 0in /  0.0mm
04:29 65.7 °F /  18.7 °C 63.3 °F /  17.4 °C 29.8in /  1010.1hPa NNE 4.2mph /  6.8km/h 7mph /  11.3km/h 92% 0in /  0.0mm
04:34 65.7 °F /  18.7 °C 63.3 °F /  17.4 °C 29.8in /  1010.1hPa NNE 4mph /  6.5km/h 6.2mph /  10km/h 92% 0in /  0.0mm
04:39 65.7 °F /  18.7 °C 63.3 °F /  17.4 °C 29.8in /  1009.9hPa NE 3.7mph /  5.9km/h 6mph /  9.7km/h 92% 0in /  0.0mm
04:44 65.7 °F /  18.7 °C 63.3 °F /  17.4 °C 29.8in /  1009.9hPa NE 3.1mph /  5km/h 5.8mph /  9.3km/h 92% 0in /  0.0mm
04:49 65.7 °F /  18.7 °C 63.3 °F /  17.4 °C 29.8in /  1010.0hPa NNE 3.4mph /  5.5km/h 6.2mph /  10km/h 92% 0in /  0.0mm
04:54 65.7 °F /  18.7 °C 63.3 °F /  17.4 °C 29.8in /  1010.0hPa NNE 4mph /  6.5km/h 6mph /  9.7km/h 92% 0in /  0.0mm
04:59 65.7 °F /  18.7 °C 63.3 °F /  17.4 °C 29.8in /  1010.0hPa NE 3.6mph /  5.8km/h 5.2mph /  8.4km/h 92% 0in /  0.0mm
05:04 65.7 °F /  18.7 °C 63.3 °F /  17.4 °C 29.8in /  1010.1hPa NE 2.9mph /  4.7km/h 5.8mph /  9.3km/h 92% 0in /  0.0mm
05:09 65.7 °F /  18.7 °C 63.3 °F /  17.4 °C 29.8in /  1010.1hPa NNE 2.9mph /  4.7km/h 6mph /  9.7km/h 92% 0in /  0.0mm
05:14 65.7 °F /  18.7 °C 63.3 °F /  17.4 °C 29.8in /  1010.1hPa NE 2.9mph /  4.7km/h 5.8mph /  9.3km/h 92% 0in /  0.0mm
05:19 65.7 °F /  18.7 °C 63.3 °F /  17.4 °C 29.8in /  1010.1hPa NE 2.9mph /  4.7km/h 6mph /  9.7km/h 92% 0in /  0.0mm
05:24 65.7 °F /  18.7 °C 63.3 °F /  17.4 °C 29.8in /  1010.1hPa NE 2.9mph /  4.7km/h 6.2mph /  10km/h 92% 0in /  0.0mm
05:29 65.7 °F /  18.7 °C 63.3 °F /  17.4 °C 29.8in /  1010.1hPa NE 2.9mph /  4.7km/h 6mph /  9.7km/h 92% 0in /  0.0mm
05:34 65.8 °F /  18.8 °C 63.5 °F /  17.5 °C 29.8in /  1010.1hPa NE 2.9mph /  4.7km/h 3.6mph /  5.8km/h 92% 0in /  0.0mm
05:39 65.8 °F /  18.8 °C 63.5 °F /  17.5 °C 29.8in /  1010.1hPa ENE 2.5mph /  4.1km/h 4.6mph /  7.4km/h 92% 0in /  0.0mm
05:44 65.8 °F /  18.8 °C 63.5 °F /  17.5 °C 29.8in /  1010.1hPa ENE 2mph /  3.2km/h 5mph /  8km/h 92% 0in /  0.0mm
05:49 65.8 °F /  18.8 °C 63.5 °F /  17.5 °C 29.8in /  1010.3hPa ENE 1.3mph /  2.1km/h 3mph /  4.8km/h 92% 0in /  0.0mm
05:54 65.8 °F /  18.8 °C 63.5 °F /  17.5 °C 29.8in /  1010.3hPa Calm   4mph /  6.4km/h 92% 0in /  0.0mm
05:59 66 °F /  18.9 °C 63.5 °F /  17.5 °C 29.8in /  1010.3hPa ONO 0.7mph /  1.2km/h 5.2mph /  8.4km/h 91.9% 0in /  0.0mm
06:04 65.8 °F /  18.8 °C 63.1 °F /  17.3 °C 29.8in /  1010.3hPa NO 1.8mph /  2.9km/h 5.2mph /  8.4km/h 91% 0in /  0.0mm
06:09 65.8 °F /  18.8 °C 63.1 °F /  17.3 °C 29.8in /  1010.3hPa NNO 2.2mph /  3.6km/h 5.2mph /  8.4km/h 91% 0in /  0.0mm
06:14 65.8 °F /  18.8 °C 63 °F /  17.2 °C 29.8in /  1010.3hPa NO 2.9mph /  4.7km/h 5mph /  8km/h 90.6% 0in /  0.0mm
06:19 65.8 °F /  18.8 °C 62.8 °F /  17.1 °C 29.8in /  1010.5hPa NO 2.5mph /  4.1km/h 5.2mph /  8.4km/h 90% 0in /  0.0mm
06:24 65.8 °F /  18.8 °C 62.8 °F /  17.1 °C 29.8in /  1010.5hPa NO 2mph /  3.2km/h 5.9mph /  9.5km/h 89.8% 0in /  0.0mm
06:29 65.8 °F /  18.8 °C 62.4 °F /  16.9 °C 29.8in /  1010.5hPa NO 2.3mph /  3.7km/h 6mph /  9.7km/h 89% 0in /  0.0mm
06:34 65.8 °F /  18.8 °C 62.4 °F /  16.9 °C 29.8in /  1010.5hPa NO 2.9mph /  4.7km/h 5mph /  8km/h 89% 0in /  0.0mm
06:39 65.8 °F /  18.8 °C 62.4 °F /  16.9 °C 29.8in /  1010.5hPa NO 2.5mph /  4.1km/h 4mph /  6.4km/h 89% 0in /  0.0mm
06:44 65.8 °F /  18.8 °C 62.4 °F /  16.9 °C 29.8in /  1010.5hPa NO 2mph /  3.2km/h 3mph /  4.8km/h 89% 0in /  0.0mm
06:49 66 °F /  18.9 °C 62.6 °F /  17 °C 29.8in /  1010.5hPa NO 1.8mph /  2.9km/h 3.1mph /  5km/h 89% 0in /  0.0mm
06:54 66 °F /  18.9 °C 62.4 °F /  16.9 °C 29.8in /  1010.5hPa NO 1.4mph /  2.2km/h 3.6mph /  5.8km/h 88.2% 0in /  0.0mm
06:59 66 °F /  18.9 °C 62.4 °F /  16.9 °C 29.8in /  1010.5hPa NO 1.6mph /  2.6km/h 4mph /  6.4km/h 88% 0in /  0.0mm
07:04 66 °F /  18.9 °C 62.6 °F /  17 °C 29.8in /  1010.6hPa NE 2mph /  3.2km/h 4.6mph /  7.4km/h 88.6% 0in /  0.0mm
07:09 66.4 °F /  19.1 °C 62.8 °F /  17.1 °C 29.8in /  1010.6hPa ESE 2mph /  3.2km/h 5mph /  8km/h 88.4% 0in /  0.0mm
07:14 66.4 °F /  19.1 °C 62.6 °F /  17 °C 29.8in /  1010.6hPa SE 2mph /  3.2km/h 4mph /  6.4km/h 88% 0in /  0.0mm
07:19 66.4 °F /  19.1 °C 62.8 °F /  17.1 °C 29.9in /  1010.8hPa SE 1.8mph /  2.9km/h 3mph /  4.8km/h 88% 0in /  0.0mm
07:24 66.4 °F /  19.1 °C 62.8 °F /  17.1 °C 29.9in /  1010.8hPa SE 1.4mph /  2.2km/h 2.9mph /  4.7km/h 88% 0in /  0.0mm
07:29 66.4 °F /  19.1 °C 62.4 °F /  16.9 °C 29.9in /  1010.8hPa Sur 1.4mph /  2.2km/h 4.7mph /  7.6km/h 87.1% 0in /  0.0mm
07:34 66.4 °F /  19.1 °C 62.4 °F /  16.9 °C 29.9in /  1010.9hPa Oeste 1.4mph /  2.2km/h 5mph /  8km/h 87% 0in /  0.0mm
07:39 66.2 °F /  19 °C 62.2 °F /  16.8 °C 29.9in /  1010.9hPa ONO 1.6mph /  2.6km/h 5mph /  8km/h 87% 0in /  0.0mm
07:44 66.2 °F /  19 °C 62.2 °F /  16.8 °C 29.9in /  1010.9hPa ONO 2mph /  3.2km/h 5mph /  8km/h 87% 0in /  0.0mm
07:49 66.2 °F /  19 °C 62.2 °F /  16.8 °C 29.9in /  1011.0hPa ONO 1.9mph /  3.1km/h 4.6mph /  7.4km/h 87% 0in /  0.0mm
07:54 66.2 °F /  19 °C 62.2 °F /  16.8 °C 29.9in /  1011.0hPa ONO 1.8mph /  2.9km/h 5mph /  8km/h 87% 0in /  0.0mm
07:59 66.2 °F /  19 °C 62.2 °F /  16.8 °C 29.9in /  1011.0hPa NO 1.9mph /  3km/h 5mph /  8km/h 87% 0in /  0.0mm
08:04 66.4 °F /  19.1 °C 62.2 °F /  16.8 °C 29.9in /  1011.2hPa NO 2mph /  3.2km/h 5mph /  8km/h 87% 0in /  0.0mm
08:09 66.6 °F /  19.2 °C 62.4 °F /  16.9 °C 29.9in /  1011.2hPa Oeste 2.2mph /  3.5km/h 5mph /  8km/h 86.8% 0in /  0.0mm
08:14 66.6 °F /  19.2 °C 62.2 °F /  16.8 °C 29.9in /  1011.2hPa Oeste 2.4mph /  3.9km/h 4mph /  6.4km/h 86% 0in /  0.0mm
08:19 66.7 °F /  19.3 °C 62.4 °F /  16.9 °C 29.9in /  1011.3hPa Oeste 2.2mph /  3.6km/h 4.6mph /  7.4km/h 86% 0in /  0.0mm
08:24 66.7 °F /  19.3 °C 62.6 °F /  17 °C 29.9in /  1011.3hPa NO 2mph /  3.2km/h 5mph /  8km/h 86% 0in /  0.0mm
08:29 67.3 °F /  19.6 °C 62.8 °F /  17.1 °C 29.9in /  1011.3hPa NE 2mph /  3.2km/h 5mph /  8km/h 85.4% 0in /  0.0mm
08:34 67.6 °F /  19.8 °C 63 °F /  17.2 °C 29.9in /  1011.5hPa NE 2mph /  3.2km/h 4.6mph /  7.4km/h 84.6% 0in /  0.0mm
08:39 68.2 °F /  20.1 °C 63 °F /  17.2 °C 29.9in /  1011.5hPa NE 2mph /  3.2km/h 5mph /  8km/h 83.5% 0in /  0.0mm
08:44 68.5 °F /  20.3 °C 63.1 °F /  17.3 °C 29.9in /  1011.5hPa NNE 2mph /  3.2km/h 4.7mph /  7.6km/h 82.6% 0in /  0.0mm
08:49 68.9 °F /  20.5 °C 62.8 °F /  17.1 °C 29.9in /  1011.5hPa NNE 1.9mph /  3.1km/h 5mph /  8km/h 81.1% 0in /  0.0mm
08:54 69.1 °F /  20.6 °C 62.8 °F /  17.1 °C 29.9in /  1011.5hPa NNO 1.8mph /  2.9km/h 5mph /  8km/h 80.4% 0in /  0.0mm
08:59 69.3 °F /  20.7 °C 62.8 °F /  17.1 °C 29.9in /  1011.5hPa North 2.1mph /  3.3km/h 5mph /  8km/h 80% 0in /  0.0mm
09:04 69.4 °F /  20.8 °C 63 °F /  17.2 °C 29.9in /  1011.6hPa NE 2.4mph /  3.9km/h 6.4mph /  10.3km/h 79.8% 0in /  0.0mm
09:09 69.6 °F /  20.9 °C 62.6 °F /  17 °C 29.9in /  1011.6hPa NE 2.5mph /  4.1km/h 7mph /  11.3km/h 78.2% 0in /  0.0mm
09:14 69.6 °F /  20.9 °C 62.6 °F /  17 °C 29.9in /  1011.6hPa NE 2.9mph /  4.7km/h 7mph /  11.3km/h 78.1% 0in /  0.0mm
09:19 69.8 °F /  21 °C 62.6 °F /  17 °C 29.9in /  1011.6hPa ENE 3mph /  4.8km/h 6mph /  9.7km/h 77.9% 0in /  0.0mm
09:24 69.8 °F /  21 °C 62.4 °F /  16.9 °C 29.9in /  1011.6hPa ESE 3.1mph /  5km/h 5mph /  8km/h 77% 0in /  0.0mm
09:29 70 °F /  21.1 °C 62.4 °F /  16.9 °C 29.9in /  1011.6hPa SE 2.7mph /  4.4km/h 4.6mph /  7.4km/h 77% 0in /  0.0mm
09:34 70.2 °F /  21.2 °C 62.4 °F /  16.9 °C 29.9in /  1011.6hPa NO 2mph /  3.2km/h 5.8mph /  9.3km/h 76.1% 0in /  0.0mm
09:39 70.3 °F /  21.3 °C 62.4 °F /  16.9 °C 29.9in /  1011.4hPa NO 2.4mph /  3.8km/h 6mph /  9.7km/h 76% 0in /  0.0mm
09:44 70.7 °F /  21.5 °C 62.4 °F /  16.9 °C 29.9in /  1011.4hPa NNO 2.9mph /  4.7km/h 5.9mph /  9.5km/h 75.3% 0in /  0.0mm
09:49 70.7 °F /  21.5 °C 62.4 °F /  16.9 °C 29.9in /  1011.7hPa NO 3mph /  4.8km/h 6.4mph /  10.3km/h 75% 0in /  0.0mm
09:54 70.9 °F /  21.6 °C 62.4 °F /  16.9 °C 29.9in /  1011.7hPa NE 3.1mph /  5km/h 7mph /  11.3km/h 74.6% 0in /  0.0mm
09:59 71.1 °F /  21.7 °C 62.4 °F /  16.9 °C 29.9in /  1011.7hPa NNE 3.1mph /  5km/h 6mph /  9.7km/h 74% 0in /  0.0mm
10:04 71.6 °F /  22 °C 62.6 °F /  17 °C 29.9in /  1011.7hPa NNE 3.1mph /  5km/h 8.1mph /  13km/h 73.1% 0in /  0.0mm
10:09 71.8 °F /  22.1 °C 62.2 °F /  16.8 °C 29.9in /  1011.7hPa NE 3.3mph /  5.3km/h 8mph /  12.9km/h 72% 0in /  0.0mm
10:14 72 °F /  22.2 °C 62.1 °F /  16.7 °C 29.9in /  1011.7hPa ENE 3.6mph /  5.8km/h 8.5mph /  13.7km/h 71.2% 0in /  0.0mm
10:19 72.1 °F /  22.3 °C 61.9 °F /  16.6 °C 29.9in /  1011.7hPa ENE 3.4mph /  5.4km/h 9mph /  14.5km/h 70.3% 0in /  0.0mm
10:24 72.5 °F /  22.5 °C 61.5 °F /  16.4 °C 29.9in /  1011.7hPa NE 2.9mph /  4.7km/h 7.4mph /  11.9km/h 68.5% 0in /  0.0mm
10:29 72.9 °F /  22.7 °C 61.3 °F /  16.3 °C 29.9in /  1011.7hPa NE 3.2mph /  5.1km/h 7mph /  11.3km/h 67% 0in /  0.0mm
10:34 73 °F /  22.8 °C 60.8 °F /  16 °C 29.9in /  1011.7hPa NNE 3.6mph /  5.8km/h 6.2mph /  10km/h 65.3% 0in /  0.0mm
10:39 73.4 °F /  23 °C 60.4 °F /  15.8 °C 29.9in /  1011.6hPa NE 3.4mph /  5.5km/h 8.5mph /  13.7km/h 63.8% 0in /  0.0mm
10:44 73.4 °F /  23 °C 59.9 °F /  15.5 °C 29.9in /  1011.6hPa NE 3.1mph /  5km/h 9.7mph /  15.6km/h 62.4% 0in /  0.0mm
10:49 73.4 °F /  23 °C 59.9 °F /  15.5 °C 29.9in /  1011.6hPa NE 3.5mph /  5.7km/h 10mph /  16.1km/h 63% 0in /  0.0mm
10:54 73.6 °F /  23.1 °C 59.5 °F /  15.3 °C 29.9in /  1011.5hPa NE 4.3mph /  6.9km/h 10.7mph /  17.2km/h 61.6% 0in /  0.0mm
10:59 73.6 °F /  23.1 °C 59.4 °F /  15.2 °C 29.9in /  1011.5hPa ENE 4.7mph /  7.5km/h 11mph /  17.7km/h 61% 0in /  0.0mm
11:04 73.6 °F /  23.1 °C 59.4 °F /  15.2 °C 29.9in /  1011.5hPa Este 5.2mph /  8.4km/h 9.7mph /  15.6km/h 61.3% 0in /  0.0mm
11:09 73.8 °F /  23.2 °C 59.5 °F /  15.3 °C 29.9in /  1011.5hPa NE 5.3mph /  8.5km/h 10.4mph /  16.7km/h 61% 0in /  0.0mm
11:14 73.8 °F /  23.2 °C 59.4 °F /  15.2 °C 29.9in /  1011.5hPa NE 5.4mph /  8.7km/h 10.4mph /  16.7km/h 60.6% 0in /  0.0mm
11:19 73.8 °F /  23.2 °C 59 °F /  15 °C 29.9in /  1011.6hPa NE 5.8mph /  9.3km/h 13.7mph /  22km/h 60% 0in /  0.0mm
11:24 73.8 °F /  23.2 °C 58.3 °F /  14.6 °C 29.9in /  1011.6hPa NE 6.4mph /  10.3km/h 14mph /  22.5km/h 58.5% 0in /  0.0mm
11:29 74.1 °F /  23.4 °C 58.5 °F /  14.7 °C 29.9in /  1011.6hPa NE 6.6mph /  10.6km/h 13mph /  20.9km/h 58.1% 0in /  0.0mm
11:34 74.5 °F /  23.6 °C 58.6 °F /  14.8 °C 29.9in /  1011.6hPa NE 6.9mph /  11.1km/h 10.7mph /  17.2km/h 58% 0in /  0.0mm
11:39 74.7 °F /  23.7 °C 58.8 °F /  14.9 °C 29.9in /  1011.6hPa NE 6.3mph /  10.2km/h 11mph /  17.7km/h 57.7% 0in /  0.0mm
11:44 75.2 °F /  24 °C 59.2 °F /  15.1 °C 29.9in /  1011.6hPa NE 5.4mph /  8.7km/h 15.2mph /  24.5km/h 57.7% 0in /  0.0mm
11:49 75.6 °F /  24.2 °C 59 °F /  15 °C 29.9in /  1011.6hPa NE 5.6mph /  9km/h 15mph /  24.1km/h 56.5% 0in /  0.0mm
11:54 75.7 °F /  24.3 °C 57.9 °F /  14.4 °C 29.9in /  1011.6hPa NE 5.9mph /  9.5km/h 15mph /  24.1km/h 54.2% 0in /  0.0mm
11:59 75.9 °F /  24.4 °C 58.6 °F /  14.8 °C 29.9in /  1011.6hPa ENE 5.9mph /  9.5km/h 13mph /  20.9km/h 54.9% 0in /  0.0mm
12:04 76.1 °F /  24.5 °C 57.7 °F /  14.3 °C 29.9in /  1011.7hPa ENE 5.9mph /  9.5km/h 13.8mph /  22.2km/h 53.2% 0in /  0.0mm
12:09 76.3 °F /  24.6 °C 58.1 °F /  14.5 °C 29.9in /  1011.7hPa ENE 6.1mph /  9.8km/h 14mph /  22.5km/h 53.5% 0in /  0.0mm
12:14 76.5 °F /  24.7 °C 57.7 °F /  14.3 °C 29.9in /  1011.7hPa NE 6.4mph /  10.3km/h 13.8mph /  22.2km/h 52.7% 0in /  0.0mm
12:19 76.3 °F /  24.6 °C 57.4 °F /  14.1 °C 29.9in /  1011.7hPa NE 6.8mph /  10.9km/h 15.2mph /  24.5km/h 52.1% 0in /  0.0mm
12:24 76.3 °F /  24.6 °C 57 °F /  13.9 °C 29.9in /  1011.6hPa ENE 7.4mph /  11.9km/h 15mph /  24.1km/h 51.3% 0in /  0.0mm
12:29 76.5 °F /  24.7 °C 57 °F /  13.9 °C 29.9in /  1011.6hPa ENE 7mph /  11.2km/h 15mph /  24.1km/h 51% 0in /  0.0mm
12:34 76.6 °F /  24.8 °C 57 °F /  13.9 °C 29.9in /  1011.6hPa NE 6.2mph /  10km/h 13.8mph /  22.2km/h 50.6% 0in /  0.0mm
12:39 76.6 °F /  24.8 °C 57.2 °F /  14 °C 29.9in /  1011.6hPa ENE 6.5mph /  10.4km/h 14mph /  22.5km/h 50.8% 0in /  0.0mm
12:44 77 °F /  25 °C 57.2 °F /  14 °C 29.9in /  1011.6hPa ENE 6.9mph /  11.1km/h 11.4mph /  18.3km/h 50.4% 0in /  0.0mm
12:49 77.4 °F /  25.2 °C 56.7 °F /  13.7 °C 29.9in /  1011.6hPa NE 6.6mph /  10.7km/h 12.7mph /  20.4km/h 49% 0in /  0.0mm
12:54 77.2 °F /  25.1 °C 57 °F /  13.9 °C 29.9in /  1011.5hPa ENE 6.2mph /  10km/h 13.7mph /  22km/h 49.8% 0in /  0.0mm
12:59 77.2 °F /  25.1 °C 57 °F /  13.9 °C 29.9in /  1011.5hPa NE 6.8mph /  10.9km/h 16.1mph /  25.9km/h 49.8% 0in /  0.0mm
13:04 77.4 °F /  25.2 °C 57.2 °F /  14 °C 29.9in /  1011.5hPa NE 7.6mph /  12.2km/h 16mph /  25.7km/h 50% 0in /  0.0mm
13:09 77.7 °F /  25.4 °C 57.6 °F /  14.2 °C 29.9in /  1011.4hPa NE 7mph /  11.3km/h 12mph /  19.3km/h 50% 0in /  0.0mm
13:14 77.7 °F /  25.4 °C 57.9 °F /  14.4 °C 29.9in /  1011.4hPa Este 5.9mph /  9.5km/h 11.8mph /  19km/h 50.5% 0in /  0.0mm
13:19 77.9 °F /  25.5 °C 58.1 °F /  14.5 °C 29.9in /  1011.4hPa ENE 6.1mph /  9.8km/h 12.7mph /  20.4km/h 50.8% 0in /  0.0mm
13:24 77.7 °F /  25.4 °C 57.9 °F /  14.4 °C 29.9in /  1011.3hPa ENE 6.4mph /  10.3km/h 13mph /  20.9km/h 50.7% 0in /  0.0mm
13:29 77.5 °F /  25.3 °C 58.6 °F /  14.8 °C 29.9in /  1011.3hPa NE 6.6mph /  10.6km/h 15.2mph /  24.5km/h 52% 0in /  0.0mm
13:34 77.4 °F /  25.2 °C 58.8 °F /  14.9 °C 29.9in /  1011.3hPa NE 6.9mph /  11.1km/h 17.5mph /  28.2km/h 52.6% 0in /  0.0mm
13:39 77 °F /  25 °C 59 °F /  15 °C 29.9in /  1011.3hPa NE 8.1mph /  13km/h 17mph /  27.4km/h 53.7% 0in /  0.0mm
13:44 77.2 °F /  25.1 °C 59 °F /  15 °C 29.9in /  1011.3hPa NE 10mph /  16.1km/h 16.1mph /  25.9km/h 53.7% 0in /  0.0mm
13:49 77.5 °F /  25.3 °C 59.2 °F /  15.1 °C 29.9in /  1011.3hPa NE 9.3mph /  15km/h 18.4mph /  29.6km/h 53.5% 0in /  0.0mm
13:54 77.4 °F /  25.2 °C 59.4 °F /  15.2 °C 29.9in /  1011.3hPa ENE 8.1mph /  13km/h 18mph /  29km/h 53.8% 0in /  0.0mm
13:59 77.4 °F /  25.2 °C 59 °F /  15 °C 29.9in /  1011.3hPa NE 8.3mph /  13.3km/h 17mph /  27.4km/h 53.3% 0in /  0.0mm
14:04 77.2 °F /  25.1 °C 59 °F /  15 °C 29.9in /  1011.3hPa NE 8.5mph /  13.7km/h 16mph /  25.7km/h 53.7% 0in /  0.0mm
14:09 77.7 °F /  25.4 °C 59.4 °F /  15.2 °C 29.9in /  1011.2hPa NE 8.1mph /  13km/h 14mph /  22.5km/h 53.3% 0in /  0.0mm
14:14 77.7 °F /  25.4 °C 59.2 °F /  15.1 °C 29.9in /  1011.2hPa NE 7.4mph /  11.9km/h 17.5mph /  28.2km/h 52.9% 0in /  0.0mm
14:19 77.5 °F /  25.3 °C 59.4 °F /  15.2 °C 29.9in /  1011.2hPa NE 7.9mph /  12.7km/h 18.4mph /  29.6km/h 53.3% 0in /  0.0mm
14:24 77.2 °F /  25.1 °C 59.5 °F /  15.3 °C 29.9in /  1011.1hPa NNE 8.7mph /  14km/h 19mph /  30.6km/h 54.5% 0in /  0.0mm
14:29 77.4 °F /  25.2 °C 60.1 °F /  15.6 °C 29.9in /  1011.1hPa NE 9.4mph /  15.2km/h 19mph /  30.6km/h 55.2% 0in /  0.0mm
14:34 78.1 °F /  25.6 °C 59.9 °F /  15.5 °C 29.9in /  1011.1hPa NE 10.7mph /  17.2km/h 18.5mph /  29.8km/h 53.8% 0in /  0.0mm
14:39 77.9 °F /  25.5 °C 59.5 °F /  15.3 °C 29.9in /  1011.1hPa NE 10mph /  16.1km/h 19mph /  30.6km/h 53% 0in /  0.0mm
14:44 77.7 °F /  25.4 °C 59 °F /  15 °C 29.9in /  1011.1hPa ENE 8.7mph /  14km/h 18mph /  29km/h 52.6% 0in /  0.0mm
14:49 77.9 °F /  25.5 °C 58.6 °F /  14.8 °C 29.9in /  1011.1hPa NE 8.7mph /  14km/h 15mph /  24.1km/h 51.6% 0in /  0.0mm
14:54 77.9 °F /  25.5 °C 58.5 °F /  14.7 °C 29.9in /  1011.0hPa NE 8.7mph /  14km/h 16.3mph /  26.2km/h 51.4% 0in /  0.0mm
14:59 77.7 °F /  25.4 °C 58.1 °F /  14.5 °C 29.9in /  1011.0hPa NE 9.3mph /  15km/h 17.3mph /  27.8km/h 50.8% 0in /  0.0mm
15:04 77.7 °F /  25.4 °C 58.1 °F /  14.5 °C 29.9in /  1011.0hPa ENE 10.2mph /  16.4km/h 17mph /  27.4km/h 51% 0in /  0.0mm
15:09 78.3 °F /  25.7 °C 58.3 °F /  14.6 °C 29.9in /  1010.9hPa NE 9.6mph /  15.5km/h 19mph /  30.6km/h 50.1% 0in /  0.0mm
15:14 78.4 °F /  25.8 °C 58.1 °F /  14.5 °C 29.9in /  1010.9hPa NE 8.7mph /  14km/h 19mph /  30.6km/h 49.6% 0in /  0.0mm
15:19 78.3 °F /  25.7 °C 57.9 °F /  14.4 °C 29.9in /  1011.0hPa NE 9.1mph /  14.6km/h 19mph /  30.6km/h 49.8% 0in /  0.0mm
15:24 78.1 °F /  25.6 °C 57.9 °F /  14.4 °C 29.9in /  1011.0hPa NE 9.7mph /  15.6km/h 19mph /  30.6km/h 50.2% 0in /  0.0mm
15:29 77.9 °F /  25.5 °C 58.3 °F /  14.6 °C 29.9in /  1011.0hPa NE 9.7mph /  15.6km/h 18.4mph /  29.6km/h 50.9% 0in /  0.0mm
15:34 77.9 °F /  25.5 °C 58.5 °F /  14.7 °C 29.9in /  1011.0hPa NE 9.7mph /  15.6km/h 18.5mph /  29.8km/h 51.2% 0in /  0.0mm
15:39 77.9 °F /  25.5 °C 58.5 °F /  14.7 °C 29.9in /  1011.0hPa NE 10.5mph /  16.9km/h 19mph /  30.6km/h 51.3% 0in /  0.0mm
15:44 77.7 °F /  25.4 °C 59 °F /  15 °C 29.9in /  1011.0hPa NE 11.8mph /  19km/h 20.7mph /  33.3km/h 52.4% 0in /  0.0mm
15:49 77.7 °F /  25.4 °C 59.2 °F /  15.1 °C 29.9in /  1011.0hPa NE 11.2mph /  18.1km/h 21mph /  33.8km/h 53% 0in /  0.0mm
15:54 77.7 °F /  25.4 °C 59.2 °F /  15.1 °C 29.9in /  1010.9hPa NE 10.2mph /  16.4km/h 17.5mph /  28.2km/h 53% 0in /  0.0mm
15:59 78.1 °F /  25.6 °C 59.5 °F /  15.3 °C 29.9in /  1010.9hPa NE 9.8mph /  15.8km/h 17.3mph /  27.8km/h 53% 0in /  0.0mm
16:04 78.3 °F /  25.7 °C 59.7 °F /  15.4 °C 29.9in /  1010.9hPa NE 9.2mph /  14.8km/h 20.8mph /  33.5km/h 53% 0in /  0.0mm
16:09 77.5 °F /  25.3 °C 59.4 °F /  15.2 °C 29.8in /  1010.7hPa NE 10.4mph /  16.8km/h 21mph /  33.8km/h 53.4% 0in /  0.0mm
16:14 77.5 °F /  25.3 °C 59.9 °F /  15.5 °C 29.8in /  1010.7hPa NE 12.5mph /  20.1km/h 21mph /  33.8km/h 54.3% 0in /  0.0mm
16:19 77.7 °F /  25.4 °C 59.9 °F /  15.5 °C 29.8in /  1010.7hPa NE 12.2mph /  19.7km/h 20.7mph /  33.3km/h 54.3% 0in /  0.0mm
16:24 77.4 °F /  25.2 °C 59.9 °F /  15.5 °C 29.8in /  1010.7hPa NE 11.8mph /  19km/h 24.6mph /  39.6km/h 55.1% 0in /  0.0mm
16:29 77.2 °F /  25.1 °C 60.3 °F /  15.7 °C 29.8in /  1010.7hPa NE 12.2mph /  19.7km/h 25mph /  40.2km/h 56.1% 0in /  0.0mm
16:34 77.4 °F /  25.2 °C 60.3 °F /  15.7 °C 29.8in /  1010.7hPa NE 13mph /  20.9km/h 23mph /  37km/h 55.7% 0in /  0.0mm
16:39 77.2 °F /  25.1 °C 60.3 °F /  15.7 °C 29.8in /  1010.7hPa NE 13mph /  20.9km/h 22mph /  35.4km/h 56% 0in /  0.0mm
16:44 76.6 °F /  24.8 °C 60.1 °F /  15.6 °C 29.8in /  1010.7hPa NE 13mph /  20.9km/h 22mph /  35.4km/h 56.6% 0in /  0.0mm
16:49 76.3 °F /  24.6 °C 60.1 °F /  15.6 °C 29.8in /  1010.7hPa NE 13.7mph /  22km/h 26.5mph /  42.6km/h 57.5% 0in /  0.0mm
16:54 76.3 °F /  24.6 °C 60.4 °F /  15.8 °C 29.8in /  1010.7hPa NE 14.7mph /  23.7km/h 26mph /  41.8km/h 58% 0in /  0.0mm
16:59 76.3 °F /  24.6 °C 60.4 °F /  15.8 °C 29.8in /  1010.7hPa NE 14.2mph /  22.9km/h 22.3mph /  35.9km/h 57.9% 0in /  0.0mm
17:04 76.5 °F /  24.7 °C 60.6 °F /  15.9 °C 29.9in /  1010.8hPa NE 13.5mph /  21.7km/h 22mph /  35.4km/h 58% 0in /  0.0mm
17:09 76.1 °F /  24.5 °C 60.4 °F /  15.8 °C 29.9in /  1010.8hPa NE 13.3mph /  21.4km/h 21mph /  33.8km/h 58.4% 0in /  0.0mm
17:14 75.9 °F /  24.4 °C 60.6 °F /  15.9 °C 29.9in /  1010.8hPa NE 13mph /  20.9km/h 21.9mph /  35.2km/h 59% 0in /  0.0mm
17:19 75.6 °F /  24.2 °C 60.6 °F /  15.9 °C 29.9in /  1010.8hPa NE 13mph /  20.9km/h 22mph /  35.4km/h 60% 0in /  0.0mm
17:24 75.4 °F /  24.1 °C 60.6 °F /  15.9 °C 29.8in /  1010.7hPa NE 13mph /  20.9km/h 24.2mph /  38.9km/h 59.9% 0in /  0.0mm
17:29 75.4 °F /  24.1 °C 60.6 °F /  15.9 °C 29.8in /  1010.7hPa NE 13mph /  20.9km/h 24mph /  38.6km/h 60% 0in /  0.0mm
17:34 75.6 °F /  24.2 °C 60.6 °F /  15.9 °C 29.9in /  1010.8hPa NE 13mph /  20.9km/h 23mph /  37km/h 60% 0in /  0.0mm
17:39 75.6 °F /  24.2 °C 60.6 °F /  15.9 °C 29.9in /  1010.8hPa NE 12.6mph /  20.2km/h 19.6mph /  31.5km/h 60% 0in /  0.0mm
17:44 75.4 °F /  24.1 °C 60.4 °F /  15.8 °C 29.9in /  1010.8hPa NE 11.4mph /  18.4km/h 20.7mph /  33.3km/h 60% 0in /  0.0mm
17:49 75.6 °F /  24.2 °C 60.6 °F /  15.9 °C 29.9in /  1010.8hPa NE 11.4mph /  18.4km/h 21mph /  33.8km/h 60% 0in /  0.0mm
17:54 75.6 °F /  24.2 °C 60.3 °F /  15.7 °C 29.9in /  1010.8hPa NE 11.4mph /  18.4km/h 21.3mph /  34.3km/h 59.3% 0in /  0.0mm
17:59 74.8 °F /  23.8 °C 60.1 °F /  15.6 °C 29.9in /  1010.8hPa NE 11.7mph /  18.9km/h 21mph /  33.8km/h 60% 0in /  0.0mm
18:04 74.7 °F /  23.7 °C 60.3 °F /  15.7 °C 29.9in /  1010.8hPa NE 12.3mph /  19.8km/h 21.3mph /  34.3km/h 60.7% 0in /  0.0mm
18:09 74.8 °F /  23.8 °C 60.4 °F /  15.8 °C 29.8in /  1010.7hPa NE 12.6mph /  20.2km/h 21mph /  33.8km/h 60.8% 0in /  0.0mm
18:14 75 °F /  23.9 °C 60.6 °F /  15.9 °C 29.8in /  1010.7hPa ENE 13mph /  20.9km/h 17.5mph /  28.2km/h 61% 0in /  0.0mm
18:19 75 °F /  23.9 °C 60.6 °F /  15.9 °C 29.9in /  1010.8hPa NE 12.2mph /  19.6km/h 19mph /  30.6km/h 60.9% 0in /  0.0mm
18:24 74.8 °F /  23.8 °C 60.6 °F /  15.9 °C 29.9in /  1010.8hPa NE 10.7mph /  17.2km/h 19mph /  30.6km/h 61.4% 0in /  0.0mm
18:29 74.8 °F /  23.8 °C 60.6 °F /  15.9 °C 29.9in /  1010.8hPa NE 10.5mph /  16.9km/h 18.5mph /  29.8km/h 61% 0in /  0.0mm
18:34 75 °F /  23.9 °C 60.6 °F /  15.9 °C 29.9in /  1010.9hPa NE 10.2mph /  16.4km/h 19mph /  30.6km/h 61% 0in /  0.0mm
18:39 74.7 °F /  23.7 °C 60.6 °F /  15.9 °C 29.9in /  1010.9hPa NE 10.6mph /  17.1km/h 19.6mph /  31.5km/h 61.7% 0in /  0.0mm
18:44 74.5 °F /  23.6 °C 61 °F /  16.1 °C 29.9in /  1010.9hPa NE 11.4mph /  18.4km/h 20mph /  32.2km/h 62.9% 0in /  0.0mm
18:49 74.1 °F /  23.4 °C 60.8 °F /  16 °C 29.9in /  1010.9hPa NE 11.6mph /  18.6km/h 20.7mph /  33.3km/h 63% 0in /  0.0mm
18:54 73.9 °F /  23.3 °C 60.8 °F /  16 °C 29.9in /  1010.9hPa NE 11.8mph /  19km/h 21mph /  33.8km/h 63.7% 0in /  0.0mm
18:59 73.9 °F /  23.3 °C 60.8 °F /  16 °C 29.9in /  1010.9hPa NE 12.1mph /  19.4km/h 20.7mph /  33.3km/h 63.9% 0in /  0.0mm
19:04 73.6 °F /  23.1 °C 60.6 °F /  15.9 °C 29.9in /  1011.0hPa NE 12.5mph /  20.1km/h 21mph /  33.8km/h 63.9% 0in /  0.0mm
19:09 73.2 °F /  22.9 °C 60.4 °F /  15.8 °C 29.9in /  1011.0hPa NE 12.9mph /  20.7km/h 21mph /  33.8km/h 64.5% 0in /  0.0mm
19:14 73.4 °F /  23 °C 60.6 °F /  15.9 °C 29.9in /  1011.0hPa NE 13.5mph /  21.7km/h 19mph /  30.6km/h 64.4% 0in /  0.0mm
19:19 73.6 °F /  23.1 °C 60.3 °F /  15.7 °C 29.9in /  1011.1hPa NE 12.1mph /  19.5km/h 17mph /  27.4km/h 63.2% 0in /  0.0mm
19:24 73.4 °F /  23 °C 60.3 °F /  15.7 °C 29.9in /  1011.1hPa NNE 9.7mph /  15.6km/h 19mph /  30.6km/h 63.8% 0in /  0.0mm
19:29 73 °F /  22.8 °C 60.4 °F /  15.8 °C 29.9in /  1011.1hPa NE 10.6mph /  17.1km/h 19.6mph /  31.5km/h 64.8% 0in /  0.0mm
19:34 72.9 °F /  22.7 °C 60.6 °F /  15.9 °C 29.9in /  1011.3hPa NE 12.3mph /  19.8km/h 20.7mph /  33.3km/h 65.5% 0in /  0.0mm
19:39 72.7 °F /  22.6 °C 60.6 °F /  15.9 °C 29.9in /  1011.3hPa NE 12.1mph /  19.5km/h 21mph /  33.8km/h 66% 0in /  0.0mm
19:44 72.3 °F /  22.4 °C 60.6 °F /  15.9 °C 29.9in /  1011.3hPa NE 11.8mph /  19km/h 20mph /  32.2km/h 66.9% 0in /  0.0mm
19:49 72.1 °F /  22.3 °C 60.8 °F /  16 °C 29.9in /  1011.5hPa NE 12.2mph /  19.7km/h 19mph /  30.6km/h 67.7% 0in /  0.0mm
19:54 72.1 °F /  22.3 °C 61 °F /  16.1 °C 29.9in /  1011.5hPa NE 13mph /  20.9km/h 18.4mph /  29.6km/h 68% 0in /  0.0mm
19:59 72.1 °F /  22.3 °C 61 °F /  16.1 °C 29.9in /  1011.5hPa NE 11.9mph /  19.1km/h 20.7mph /  33.3km/h 68% 0in /  0.0mm
20:04 72 °F /  22.2 °C 60.8 °F /  16 °C 29.9in /  1011.8hPa NE 10.2mph /  16.4km/h 21mph /  33.8km/h 68.1% 0in /  0.0mm
20:09 71.8 °F /  22.1 °C 60.8 °F /  16 °C 29.9in /  1011.8hPa NE 10.6mph /  17km/h 18mph /  29km/h 68.5% 0in /  0.0mm
20:14 71.6 °F /  22 °C 60.6 °F /  15.9 °C 29.9in /  1011.8hPa NE 11.2mph /  18km/h 17mph /  27.4km/h 68.3% 0in /  0.0mm
20:19 71.4 °F /  21.9 °C 60.4 °F /  15.8 °C 29.9in /  1012.1hPa NE 10.8mph /  17.4km/h 17.3mph /  27.8km/h 68.3% 0in /  0.0mm
20:24 71.2 °F /  21.8 °C 60.6 °F /  15.9 °C 29.9in /  1012.1hPa NE 10mph /  16.1km/h 17mph /  27.4km/h 68.9% 0in /  0.0mm
20:29 71.2 °F /  21.8 °C 60.6 °F /  15.9 °C 29.9in /  1012.1hPa NE 10mph /  16.1km/h 17.3mph /  27.8km/h 69.5% 0in /  0.0mm
20:34 71.1 °F /  21.7 °C 60.8 °F /  16 °C 29.9in /  1012.3hPa NE 10mph /  16.1km/h 17mph /  27.4km/h 70% 0in /  0.0mm
20:39 71.1 °F /  21.7 °C 60.6 °F /  15.9 °C 29.9in /  1012.3hPa NE 9.7mph /  15.6km/h 16.3mph /  26.2km/h 70% 0in /  0.0mm
20:44 70.7 °F /  21.5 °C 60.4 °F /  15.8 °C 29.9in /  1012.3hPa ENE 9.2mph /  14.8km/h 16.1mph /  25.9km/h 70.2% 0in /  0.0mm
20:49 70.5 °F /  21.4 °C 60.6 °F /  15.9 °C 29.9in /  1012.6hPa ENE 9.2mph /  14.8km/h 16.1mph /  25.9km/h 71% 0in /  0.0mm
20:54 70.3 °F /  21.3 °C 60.8 °F /  16 °C 29.9in /  1012.6hPa NE 9.2mph /  14.8km/h 16mph /  25.7km/h 71.8% 0in /  0.0mm
20:59 70.2 °F /  21.2 °C 61 °F /  16.1 °C 29.9in /  1012.6hPa NE 8.9mph /  14.4km/h 15mph /  24.1km/h 72.3% 0in /  0.0mm
21:04 70.2 °F /  21.2 °C 61 °F /  16.1 °C 29.9in /  1012.9hPa NE 8.5mph /  13.7km/h 15.2mph /  24.5km/h 72.7% 0in /  0.0mm
21:09 69.8 °F /  21 °C 60.8 °F /  16 °C 29.9in /  1012.9hPa NE 8.3mph /  13.4km/h 15mph /  24.1km/h 73% 0in /  0.0mm
21:14 69.4 °F /  20.8 °C 60.8 °F /  16 °C 29.9in /  1012.9hPa NE 8.1mph /  13km/h 16.1mph /  25.9km/h 73.6% 0in /  0.0mm
21:19 69.3 °F /  20.7 °C 60.6 °F /  15.9 °C 29.9in /  1013.2hPa NE 8.5mph /  13.7km/h 17.3mph /  27.8km/h 73.9% 0in /  0.0mm
21:24 69.3 °F /  20.7 °C 60.4 °F /  15.8 °C 29.9in /  1013.2hPa ENE 9.2mph /  14.8km/h 17mph /  27.4km/h 74% 0in /  0.0mm
21:29 69.1 °F /  20.6 °C 60.6 °F /  15.9 °C 29.9in /  1013.2hPa NE 8.6mph /  13.9km/h 14mph /  22.5km/h 74.6% 0in /  0.0mm
21:34 68.7 °F /  20.4 °C 60.6 °F /  15.9 °C 29.9in /  1013.5hPa NE 7.6mph /  12.2km/h 15.2mph /  24.5km/h 75.4% 0in /  0.0mm
21:39 68.7 °F /  20.4 °C 60.8 °F /  16 °C 29.9in /  1013.5hPa NE 8mph /  12.8km/h 15mph /  24.1km/h 76.1% 0in /  0.0mm
21:44 68.5 °F /  20.3 °C 61.2 °F /  16.2 °C 29.9in /  1013.5hPa NE 8.5mph /  13.7km/h 13.7mph /  22km/h 77% 0in /  0.0mm
21:49 68.5 °F /  20.3 °C 61 °F /  16.1 °C 29.9in /  1013.8hPa NE 8.1mph /  13.1km/h 14mph /  22.5km/h 77% 0in /  0.0mm
21:54 68.4 °F /  20.2 °C 61 °F /  16.1 °C 29.9in /  1013.8hPa NE 7.6mph /  12.2km/h 14mph /  22.5km/h 77.6% 0in /  0.0mm
21:59 68.2 °F /  20.1 °C 61.2 °F /  16.2 °C 29.9in /  1013.8hPa NE 7.6mph /  12.2km/h 13.8mph /  22.2km/h 78% 0in /  0.0mm
22:04 68 °F /  20 °C 61 °F /  16.1 °C 29.9in /  1014.0hPa NE 7.6mph /  12.2km/h 14mph /  22.5km/h 78% 0in /  0.0mm
22:09 68 °F /  20 °C 61.2 °F /  16.2 °C 29.9in /  1014.0hPa NE 7.6mph /  12.2km/h 14mph /  22.5km/h 78.8% 0in /  0.0mm
22:14 67.8 °F /  19.9 °C 61.2 °F /  16.2 °C 29.9in /  1014.0hPa NE 7.6mph /  12.2km/h 11.8mph /  19km/h 79% 0in /  0.0mm
22:19 67.8 °F /  19.9 °C 61.2 °F /  16.2 °C 30in /  1014.3hPa NE 7.6mph /  12.2km/h 15mph /  24.1km/h 79% 0in /  0.0mm
22:24 67.6 °F /  19.8 °C 61 °F /  16.1 °C 30in /  1014.3hPa NE 7.6mph /  12.2km/h 15mph /  24.1km/h 79% 0in /  0.0mm
22:29 67.6 °F /  19.8 °C 61 °F /  16.1 °C 30in /  1014.3hPa NE 8mph /  12.8km/h 14mph /  22.5km/h 79% 0in /  0.0mm
22:34 67.6 °F /  19.8 °C 61.2 °F /  16.2 °C 30in /  1014.5hPa NE 8.5mph /  13.7km/h 14mph /  22.5km/h 80% 0in /  0.0mm
22:39 67.6 °F /  19.8 °C 61.2 °F /  16.2 °C 30in /  1014.5hPa NE 8.1mph /  13km/h 14mph /  22.5km/h 80% 0in /  0.0mm
22:44 67.5 °F /  19.7 °C 61.2 °F /  16.2 °C 30in /  1014.5hPa NE 7.4mph /  11.9km/h 13.8mph /  22.2km/h 80% 0in /  0.0mm
22:49 67.5 °F /  19.7 °C 61.2 °F /  16.2 °C 30in /  1014.8hPa NE 7.8mph /  12.5km/h 14mph /  22.5km/h 80% 0in /  0.0mm
22:54 67.5 °F /  19.7 °C 61.2 °F /  16.2 °C 30in /  1014.8hPa NE 8.5mph /  13.7km/h 14mph /  22.5km/h 80.1% 0in /  0.0mm
22:59 67.5 °F /  19.7 °C 61.3 °F /  16.3 °C 30in /  1014.8hPa NE 7.5mph /  12km/h 9mph /  14.5km/h 80.6% 0in /  0.0mm
23:04 67.3 °F /  19.6 °C 61.2 °F /  16.2 °C 30in /  1015.0hPa NE 5.9mph /  9.5km/h 12.7mph /  20.4km/h 81% 0in /  0.0mm
23:09 67.3 °F /  19.6 °C 61.2 °F /  16.2 °C 30in /  1015.0hPa NE 5.9mph /  9.5km/h 13mph /  20.9km/h 81% 0in /  0.0mm
23:14 67.3 °F /  19.6 °C 61.2 °F /  16.2 °C 30in /  1015.0hPa NE 5.9mph /  9.5km/h 11.8mph /  19km/h 81% 0in /  0.0mm
23:19 66.9 °F /  19.4 °C 61 °F /  16.1 °C 30in /  1015.2hPa NE 6mph /  9.7km/h 12mph /  19.3km/h 81% 0in /  0.0mm
23:24 66.7 °F /  19.3 °C 60.8 °F /  16 °C 30in /  1015.2hPa NE 6.2mph /  10km/h 12mph /  19.3km/h 81% 0in /  0.0mm
23:29 66.7 °F /  19.3 °C 61 °F /  16.1 °C 30in /  1015.2hPa NE 6.8mph /  11km/h 14mph /  22.5km/h 81.7% 0in /  0.0mm
23:34 66.6 °F /  19.2 °C 61 °F /  16.1 °C 30in /  1015.5hPa NE 8.1mph /  13km/h 14mph /  22.5km/h 82% 0in /  0.0mm
23:39 66.6 °F /  19.2 °C 61 °F /  16.1 °C 30in /  1015.5hPa NE 7.6mph /  12.3km/h 12mph /  19.3km/h 82% 0in /  0.0mm
23:44 66.4 °F /  19.1 °C 60.8 °F /  16 °C 30in /  1015.5hPa NE 6.9mph /  11.1km/h 10mph /  16.1km/h 82% 0in /  0.0mm
23:49 66.2 °F /  19 °C 60.6 °F /  15.9 °C 30in /  1015.5hPa NE 6.6mph /  10.7km/h 10.4mph /  16.7km/h 82.2% 0in /  0.0mm
23:54 66 °F /  18.9 °C 60.6 °F /  15.9 °C 30in /  1015.5hPa NE 6.2mph /  10km/h 10mph /  16.1km/h 83% 0in /  0.0mm
23:59 65.8 °F /  18.8 °C 60.4 °F /  15.8 °C 30in /  1015.5hPa NE 6.2mph /  10km/h 10.7mph /  17.2km/h 83% 0in /  0.0mm
Murcia-Puente Tocinos, España
Compliments of Weather Underground - 3 mb

La estación de MeteoMurcia.com, publica sus datos en los siguientes proyectos:

Weather Underground PWS IMURCIAP2 Meteoclimatic www.awekas.at

W3Counter
Web Analytics